sensor_id;sensor_type;location;lat;lon;timestamp;P1;durP1;ratioP1;P2;durP2;ratioP2
24761;SDS011;12865;51.934;10.330;2023-05-07T00:02:30;41.53;;;29.35;;
24761;SDS011;12865;51.934;10.330;2023-05-07T00:05:16;37.03;;;28.52;;
24761;SDS011;12865;51.934;10.330;2023-05-07T00:08:01;39.13;;;30.45;;
24761;SDS011;12865;51.934;10.330;2023-05-07T00:10:47;40.47;;;29.23;;
24761;SDS011;12865;51.934;10.330;2023-05-07T00:13:33;40.30;;;30.35;;
24761;SDS011;12865;51.934;10.330;2023-05-07T00:16:20;39.70;;;30.27;;
24761;SDS011;12865;51.934;10.330;2023-05-07T00:19:06;39.28;;;29.52;;
24761;SDS011;12865;51.934;10.330;2023-05-07T00:21:52;37.75;;;29.92;;
24761;SDS011;12865;51.934;10.330;2023-05-07T00:24:39;42.75;;;31.55;;
24761;SDS011;12865;51.934;10.330;2023-05-07T00:27:24;38.92;;;28.90;;
24761;SDS011;12865;51.934;10.330;2023-05-07T00:30:11;41.97;;;30.00;;
24761;SDS011;12865;51.934;10.330;2023-05-07T00:32:57;36.50;;;29.67;;
24761;SDS011;12865;51.934;10.330;2023-05-07T00:35:42;42.25;;;29.40;;
24761;SDS011;12865;51.934;10.330;2023-05-07T00:38:28;41.50;;;29.77;;
24761;SDS011;12865;51.934;10.330;2023-05-07T00:41:14;38.88;;;29.13;;
24761;SDS011;12865;51.934;10.330;2023-05-07T00:44:00;37.08;;;28.17;;
24761;SDS011;12865;51.934;10.330;2023-05-07T00:46:47;34.38;;;26.65;;
24761;SDS011;12865;51.934;10.330;2023-05-07T00:49:38;38.80;;;29.20;;
24761;SDS011;12865;51.934;10.330;2023-05-07T00:52:26;35.00;;;26.10;;
24761;SDS011;12865;51.934;10.330;2023-05-07T00:55:13;41.08;;;28.70;;
24761;SDS011;12865;51.934;10.330;2023-05-07T00:57:59;36.03;;;27.23;;
24761;SDS011;12865;51.934;10.330;2023-05-07T01:00:45;35.88;;;27.98;;
24761;SDS011;12865;51.934;10.330;2023-05-07T01:03:31;41.95;;;27.50;;
24761;SDS011;12865;51.934;10.330;2023-05-07T01:06:16;32.95;;;26.48;;
24761;SDS011;12865;51.934;10.330;2023-05-07T01:09:03;36.95;;;28.08;;
24761;SDS011;12865;51.934;10.330;2023-05-07T01:11:49;34.72;;;27.42;;
24761;SDS011;12865;51.934;10.330;2023-05-07T01:14:37;34.45;;;26.42;;
24761;SDS011;12865;51.934;10.330;2023-05-07T01:17:22;32.35;;;24.73;;
24761;SDS011;12865;51.934;10.330;2023-05-07T01:20:09;36.70;;;26.55;;
24761;SDS011;12865;51.934;10.330;2023-05-07T01:22:59;37.45;;;25.63;;
24761;SDS011;12865;51.934;10.330;2023-05-07T01:25:52;33.17;;;25.55;;
24761;SDS011;12865;51.934;10.330;2023-05-07T01:28:38;36.80;;;26.42;;
24761;SDS011;12865;51.934;10.330;2023-05-07T01:31:24;34.50;;;24.83;;
24761;SDS011;12865;51.934;10.330;2023-05-07T01:34:10;33.92;;;25.23;;
24761;SDS011;12865;51.934;10.330;2023-05-07T01:36:58;33.28;;;25.70;;
24761;SDS011;12865;51.934;10.330;2023-05-07T01:39:44;32.35;;;24.45;;
24761;SDS011;12865;51.934;10.330;2023-05-07T01:42:30;29.70;;;23.45;;
24761;SDS011;12865;51.934;10.330;2023-05-07T01:45:16;30.80;;;23.88;;
24761;SDS011;12865;51.934;10.330;2023-05-07T01:48:02;28.33;;;22.95;;
24761;SDS011;12865;51.934;10.330;2023-05-07T01:50:48;32.28;;;24.80;;
24761;SDS011;12865;51.934;10.330;2023-05-07T01:53:35;29.63;;;23.13;;
24761;SDS011;12865;51.934;10.330;2023-05-07T01:56:24;31.40;;;25.05;;
24761;SDS011;12865;51.934;10.330;2023-05-07T01:59:10;28.10;;;23.63;;
24761;SDS011;12865;51.934;10.330;2023-05-07T02:01:56;28.20;;;22.55;;
24761;SDS011;12865;51.934;10.330;2023-05-07T02:04:41;27.98;;;22.55;;
24761;SDS011;12865;51.934;10.330;2023-05-07T02:07:27;26.42;;;19.92;;
24761;SDS011;12865;51.934;10.330;2023-05-07T02:10:13;23.95;;;18.90;;
24761;SDS011;12865;51.934;10.330;2023-05-07T02:12:59;24.40;;;18.85;;
24761;SDS011;12865;51.934;10.330;2023-05-07T02:15:47;22.30;;;18.63;;
24761;SDS011;12865;51.934;10.330;2023-05-07T02:18:35;20.50;;;16.17;;
24761;SDS011;12865;51.934;10.330;2023-05-07T02:21:21;21.20;;;16.63;;
24761;SDS011;12865;51.934;10.330;2023-05-07T02:24:07;19.23;;;16.63;;
24761;SDS011;12865;51.934;10.330;2023-05-07T02:26:52;20.67;;;16.38;;
24761;SDS011;12865;51.934;10.330;2023-05-07T02:29:38;20.15;;;16.17;;
24761;SDS011;12865;51.934;10.330;2023-05-07T02:32:24;20.63;;;16.73;;
24761;SDS011;12865;51.934;10.330;2023-05-07T02:35:09;20.45;;;16.08;;
24761;SDS011;12865;51.934;10.330;2023-05-07T02:37:55;19.88;;;15.80;;
24761;SDS011;12865;51.934;10.330;2023-05-07T02:40:41;19.58;;;16.10;;
24761;SDS011;12865;51.934;10.330;2023-05-07T02:43:27;23.08;;;17.00;;
24761;SDS011;12865;51.934;10.330;2023-05-07T02:46:13;21.00;;;15.98;;
24761;SDS011;12865;51.934;10.330;2023-05-07T02:48:58;19.98;;;16.90;;
24761;SDS011;12865;51.934;10.330;2023-05-07T02:51:44;21.10;;;16.65;;
24761;SDS011;12865;51.934;10.330;2023-05-07T02:54:30;22.50;;;17.25;;
24761;SDS011;12865;51.934;10.330;2023-05-07T02:57:16;21.92;;;17.45;;
24761;SDS011;12865;51.934;10.330;2023-05-07T03:00:15;19.83;;;16.70;;
24761;SDS011;12865;51.934;10.330;2023-05-07T03:03:03;19.88;;;16.70;;
24761;SDS011;12865;51.934;10.330;2023-05-07T03:05:48;21.83;;;17.35;;
24761;SDS011;12865;51.934;10.330;2023-05-07T03:08:34;22.13;;;17.35;;
24761;SDS011;12865;51.934;10.330;2023-05-07T03:11:20;20.15;;;16.27;;
24761;SDS011;12865;51.934;10.330;2023-05-07T03:14:06;20.38;;;17.38;;
24761;SDS011;12865;51.934;10.330;2023-05-07T03:16:51;24.17;;;18.17;;
24761;SDS011;12865;51.934;10.330;2023-05-07T03:19:37;22.48;;;18.75;;
24761;SDS011;12865;51.934;10.330;2023-05-07T03:22:23;22.70;;;18.40;;
24761;SDS011;12865;51.934;10.330;2023-05-07T03:25:09;21.42;;;17.75;;
24761;SDS011;12865;51.934;10.330;2023-05-07T03:27:56;25.00;;;18.73;;
24761;SDS011;12865;51.934;10.330;2023-05-07T03:30:42;22.55;;;18.27;;
24761;SDS011;12865;51.934;10.330;2023-05-07T03:33:27;21.00;;;17.90;;
24761;SDS011;12865;51.934;10.330;2023-05-07T03:36:13;24.55;;;19.52;;
24761;SDS011;12865;51.934;10.330;2023-05-07T03:38:59;23.52;;;17.92;;
24761;SDS011;12865;51.934;10.330;2023-05-07T03:41:44;21.73;;;17.50;;
24761;SDS011;12865;51.934;10.330;2023-05-07T03:44:30;25.95;;;19.02;;
24761;SDS011;12865;51.934;10.330;2023-05-07T03:47:16;21.60;;;18.20;;
24761;SDS011;12865;51.934;10.330;2023-05-07T03:50:01;24.73;;;18.65;;
24761;SDS011;12865;51.934;10.330;2023-05-07T03:52:47;23.27;;;18.08;;
24761;SDS011;12865;51.934;10.330;2023-05-07T03:55:33;24.63;;;18.65;;
24761;SDS011;12865;51.934;10.330;2023-05-07T03:58:18;22.90;;;18.23;;
24761;SDS011;12865;51.934;10.330;2023-05-07T04:01:04;24.90;;;18.73;;
24761;SDS011;12865;51.934;10.330;2023-05-07T04:03:50;23.67;;;19.25;;
24761;SDS011;12865;51.934;10.330;2023-05-07T04:06:35;24.95;;;17.55;;
24761;SDS011;12865;51.934;10.330;2023-05-07T04:09:21;22.35;;;17.55;;
24761;SDS011;12865;51.934;10.330;2023-05-07T04:12:07;21.20;;;17.83;;
24761;SDS011;12865;51.934;10.330;2023-05-07T04:14:52;23.85;;;19.25;;
24761;SDS011;12865;51.934;10.330;2023-05-07T04:17:38;25.10;;;18.30;;
24761;SDS011;12865;51.934;10.330;2023-05-07T04:20:23;21.90;;;16.80;;
24761;SDS011;12865;51.934;10.330;2023-05-07T04:23:09;22.10;;;17.40;;
24761;SDS011;12865;51.934;10.330;2023-05-07T04:25:55;22.95;;;16.27;;
24761;SDS011;12865;51.934;10.330;2023-05-07T04:28:41;20.17;;;15.68;;
24761;SDS011;12865;51.934;10.330;2023-05-07T04:31:27;21.70;;;16.55;;
24761;SDS011;12865;51.934;10.330;2023-05-07T04:34:13;21.58;;;16.73;;
24761;SDS011;12865;51.934;10.330;2023-05-07T04:36:59;21.95;;;16.45;;
24761;SDS011;12865;51.934;10.330;2023-05-07T04:39:45;21.63;;;16.42;;
24761;SDS011;12865;51.934;10.330;2023-05-07T04:42:31;23.38;;;16.75;;
24761;SDS011;12865;51.934;10.330;2023-05-07T04:45:17;21.83;;;16.40;;
24761;SDS011;12865;51.934;10.330;2023-05-07T04:48:02;22.05;;;17.30;;
24761;SDS011;12865;51.934;10.330;2023-05-07T04:50:49;21.20;;;17.30;;
24761;SDS011;12865;51.934;10.330;2023-05-07T04:53:35;21.70;;;17.27;;
24761;SDS011;12865;51.934;10.330;2023-05-07T04:56:21;20.60;;;17.08;;
24761;SDS011;12865;51.934;10.330;2023-05-07T04:59:07;21.27;;;17.20;;
24761;SDS011;12865;51.934;10.330;2023-05-07T05:01:52;24.38;;;18.70;;
24761;SDS011;12865;51.934;10.330;2023-05-07T05:04:38;21.25;;;17.33;;
24761;SDS011;12865;51.934;10.330;2023-05-07T05:07:23;21.35;;;17.35;;
24761;SDS011;12865;51.934;10.330;2023-05-07T05:10:09;23.08;;;17.77;;
24761;SDS011;12865;51.934;10.330;2023-05-07T05:12:55;22.75;;;18.73;;
24761;SDS011;12865;51.934;10.330;2023-05-07T05:15:40;20.45;;;17.23;;
24761;SDS011;12865;51.934;10.330;2023-05-07T05:18:26;18.83;;;15.75;;
24761;SDS011;12865;51.934;10.330;2023-05-07T05:21:12;21.38;;;16.70;;
24761;SDS011;12865;51.934;10.330;2023-05-07T05:23:58;23.30;;;17.80;;
24761;SDS011;12865;51.934;10.330;2023-05-07T05:26:43;22.17;;;17.65;;
24761;SDS011;12865;51.934;10.330;2023-05-07T05:29:29;20.85;;;17.15;;
24761;SDS011;12865;51.934;10.330;2023-05-07T05:32:16;19.83;;;16.65;;
24761;SDS011;12865;51.934;10.330;2023-05-07T05:35:02;22.75;;;17.05;;
24761;SDS011;12865;51.934;10.330;2023-05-07T05:37:48;23.48;;;16.23;;
24761;SDS011;12865;51.934;10.330;2023-05-07T05:40:34;20.95;;;16.60;;
24761;SDS011;12865;51.934;10.330;2023-05-07T05:43:19;20.38;;;15.70;;
24761;SDS011;12865;51.934;10.330;2023-05-07T05:46:05;18.02;;;15.75;;
24761;SDS011;12865;51.934;10.330;2023-05-07T05:48:51;17.70;;;15.68;;
24761;SDS011;12865;51.934;10.330;2023-05-07T05:51:37;16.08;;;14.38;;
24761;SDS011;12865;51.934;10.330;2023-05-07T05:54:22;18.48;;;14.93;;
24761;SDS011;12865;51.934;10.330;2023-05-07T05:57:08;17.73;;;14.75;;
24761;SDS011;12865;51.934;10.330;2023-05-07T05:59:54;19.13;;;14.55;;
24761;SDS011;12865;51.934;10.330;2023-05-07T06:02:40;20.23;;;14.63;;
24761;SDS011;12865;51.934;10.330;2023-05-07T06:05:26;18.42;;;15.27;;
24761;SDS011;12865;51.934;10.330;2023-05-07T06:08:11;18.65;;;14.65;;
24761;SDS011;12865;51.934;10.330;2023-05-07T06:10:57;17.90;;;13.93;;
24761;SDS011;12865;51.934;10.330;2023-05-07T06:13:43;18.83;;;14.98;;
24761;SDS011;12865;51.934;10.330;2023-05-07T06:16:29;17.58;;;14.25;;
24761;SDS011;12865;51.934;10.330;2023-05-07T06:19:15;15.43;;;13.73;;
24761;SDS011;12865;51.934;10.330;2023-05-07T06:22:03;18.17;;;13.35;;
24761;SDS011;12865;51.934;10.330;2023-05-07T06:24:49;16.95;;;13.45;;
24761;SDS011;12865;51.934;10.330;2023-05-07T06:27:34;17.50;;;14.27;;
24761;SDS011;12865;51.934;10.330;2023-05-07T06:30:20;20.77;;;14.13;;
24761;SDS011;12865;51.934;10.330;2023-05-07T06:33:06;16.08;;;13.23;;
24761;SDS011;12865;51.934;10.330;2023-05-07T06:35:52;15.00;;;12.63;;
24761;SDS011;12865;51.934;10.330;2023-05-07T06:38:37;16.45;;;13.30;;
24761;SDS011;12865;51.934;10.330;2023-05-07T06:41:23;17.80;;;13.52;;
24761;SDS011;12865;51.934;10.330;2023-05-07T06:44:08;15.20;;;13.43;;
24761;SDS011;12865;51.934;10.330;2023-05-07T06:46:54;15.45;;;12.70;;
24761;SDS011;12865;51.934;10.330;2023-05-07T06:49:40;15.57;;;12.88;;
24761;SDS011;12865;51.934;10.330;2023-05-07T06:52:25;15.00;;;12.35;;
24761;SDS011;12865;51.934;10.330;2023-05-07T06:55:11;16.38;;;12.80;;
24761;SDS011;12865;51.934;10.330;2023-05-07T06:57:57;14.68;;;12.73;;
24761;SDS011;12865;51.934;10.330;2023-05-07T07:00:46;15.23;;;11.90;;
24761;SDS011;12865;51.934;10.330;2023-05-07T07:03:31;12.45;;;11.18;;
24761;SDS011;12865;51.934;10.330;2023-05-07T07:06:17;12.60;;;11.30;;
24761;SDS011;12865;51.934;10.330;2023-05-07T07:09:03;13.30;;;11.90;;
24761;SDS011;12865;51.934;10.330;2023-05-07T07:11:48;14.20;;;11.80;;
24761;SDS011;12865;51.934;10.330;2023-05-07T07:14:34;14.90;;;12.13;;
24761;SDS011;12865;51.934;10.330;2023-05-07T07:17:20;13.73;;;12.30;;
24761;SDS011;12865;51.934;10.330;2023-05-07T07:20:06;12.88;;;11.07;;
24761;SDS011;12865;51.934;10.330;2023-05-07T07:22:52;13.43;;;12.02;;
24761;SDS011;12865;51.934;10.330;2023-05-07T07:25:37;13.73;;;12.10;;
24761;SDS011;12865;51.934;10.330;2023-05-07T07:28:23;13.55;;;11.25;;
24761;SDS011;12865;51.934;10.330;2023-05-07T07:31:09;12.10;;;10.90;;
24761;SDS011;12865;51.934;10.330;2023-05-07T07:33:55;14.32;;;12.75;;
24761;SDS011;12865;51.934;10.330;2023-05-07T07:36:40;13.65;;;12.23;;
24761;SDS011;12865;51.934;10.330;2023-05-07T07:39:26;13.30;;;11.68;;
24761;SDS011;12865;51.934;10.330;2023-05-07T07:42:12;14.50;;;12.95;;
24761;SDS011;12865;51.934;10.330;2023-05-07T07:44:57;13.75;;;12.18;;
24761;SDS011;12865;51.934;10.330;2023-05-07T07:47:43;15.40;;;13.80;;
24761;SDS011;12865;51.934;10.330;2023-05-07T07:50:29;14.32;;;12.82;;
24761;SDS011;12865;51.934;10.330;2023-05-07T07:53:14;14.23;;;12.77;;
24761;SDS011;12865;51.934;10.330;2023-05-07T07:56:00;14.20;;;12.70;;
24761;SDS011;12865;51.934;10.330;2023-05-07T07:58:46;16.60;;;13.93;;
24761;SDS011;12865;51.934;10.330;2023-05-07T08:01:31;15.40;;;13.77;;
24761;SDS011;12865;51.934;10.330;2023-05-07T08:04:18;16.42;;;13.93;;
24761;SDS011;12865;51.934;10.330;2023-05-07T08:07:03;17.58;;;14.15;;
24761;SDS011;12865;51.934;10.330;2023-05-07T08:09:49;15.57;;;13.93;;
24761;SDS011;12865;51.934;10.330;2023-05-07T08:12:35;17.23;;;15.40;;
24761;SDS011;12865;51.934;10.330;2023-05-07T08:15:20;15.98;;;14.38;;
24761;SDS011;12865;51.934;10.330;2023-05-07T08:18:06;16.95;;;14.88;;
24761;SDS011;12865;51.934;10.330;2023-05-07T08:20:52;15.07;;;13.57;;
24761;SDS011;12865;51.934;10.330;2023-05-07T08:23:37;15.02;;;13.48;;
24761;SDS011;12865;51.934;10.330;2023-05-07T08:26:23;15.65;;;14.05;;
24761;SDS011;12865;51.934;10.330;2023-05-07T08:29:09;14.93;;;13.35;;
24761;SDS011;12865;51.934;10.330;2023-05-07T08:31:54;15.65;;;14.02;;
24761;SDS011;12865;51.934;10.330;2023-05-07T08:34:40;16.83;;;14.70;;
24761;SDS011;12865;51.934;10.330;2023-05-07T08:37:26;16.10;;;14.40;;
24761;SDS011;12865;51.934;10.330;2023-05-07T08:40:11;16.92;;;14.52;;
24761;SDS011;12865;51.934;10.330;2023-05-07T08:42:57;16.85;;;14.18;;
24761;SDS011;12865;51.934;10.330;2023-05-07T08:45:44;15.27;;;13.73;;
24761;SDS011;12865;51.934;10.330;2023-05-07T08:48:31;15.50;;;13.70;;
24761;SDS011;12865;51.934;10.330;2023-05-07T08:51:18;15.50;;;13.43;;
24761;SDS011;12865;51.934;10.330;2023-05-07T08:54:05;14.63;;;13.18;;
24761;SDS011;12865;51.934;10.330;2023-05-07T08:56:52;19.73;;;14.27;;
24761;SDS011;12865;51.934;10.330;2023-05-07T08:59:39;15.70;;;13.95;;
24761;SDS011;12865;51.934;10.330;2023-05-07T09:02:26;16.48;;;14.77;;
24761;SDS011;12865;51.934;10.330;2023-05-07T09:05:12;16.90;;;15.10;;
24761;SDS011;12865;51.934;10.330;2023-05-07T09:07:59;16.52;;;14.63;;
24761;SDS011;12865;51.934;10.330;2023-05-07T09:10:47;15.68;;;14.07;;
24761;SDS011;12865;51.934;10.330;2023-05-07T09:13:33;17.17;;;14.75;;
24761;SDS011;12865;51.934;10.330;2023-05-07T09:16:20;18.08;;;14.60;;
24761;SDS011;12865;51.934;10.330;2023-05-07T09:19:06;16.80;;;14.65;;
24761;SDS011;12865;51.934;10.330;2023-05-07T09:22:01;18.70;;;14.98;;
24761;SDS011;12865;51.934;10.330;2023-05-07T09:24:48;16.65;;;14.75;;
24761;SDS011;12865;51.934;10.330;2023-05-07T09:27:35;19.25;;;15.75;;
24761;SDS011;12865;51.934;10.330;2023-05-07T09:30:21;16.85;;;15.15;;
24761;SDS011;12865;51.934;10.330;2023-05-07T09:33:07;17.83;;;16.08;;
24761;SDS011;12865;51.934;10.330;2023-05-07T09:35:52;19.02;;;16.00;;
24761;SDS011;12865;51.934;10.330;2023-05-07T09:38:39;17.20;;;15.40;;
24761;SDS011;12865;51.934;10.330;2023-05-07T09:41:25;18.65;;;16.60;;
24761;SDS011;12865;51.934;10.330;2023-05-07T09:44:12;17.60;;;15.70;;
24761;SDS011;12865;51.934;10.330;2023-05-07T09:46:59;16.63;;;14.93;;
24761;SDS011;12865;51.934;10.330;2023-05-07T09:49:46;16.90;;;15.20;;
24761;SDS011;12865;51.934;10.330;2023-05-07T09:52:33;16.88;;;14.95;;
24761;SDS011;12865;51.934;10.330;2023-05-07T09:55:20;15.80;;;14.25;;
24761;SDS011;12865;51.934;10.330;2023-05-07T09:58:07;15.80;;;14.20;;
24761;SDS011;12865;51.934;10.330;2023-05-07T10:00:53;16.27;;;14.55;;
24761;SDS011;12865;51.934;10.330;2023-05-07T10:03:40;17.92;;;16.13;;
24761;SDS011;12865;51.934;10.330;2023-05-07T10:06:27;15.60;;;14.10;;
24761;SDS011;12865;51.934;10.330;2023-05-07T10:09:13;16.38;;;13.70;;
24761;SDS011;12865;51.934;10.330;2023-05-07T10:12:00;17.02;;;15.23;;
24761;SDS011;12865;51.934;10.330;2023-05-07T10:14:46;15.32;;;13.75;;
24761;SDS011;12865;51.934;10.330;2023-05-07T10:17:37;16.48;;;14.80;;
24761;SDS011;12865;51.934;10.330;2023-05-07T10:20:24;16.10;;;14.40;;
24761;SDS011;12865;51.934;10.330;2023-05-07T10:23:12;16.40;;;14.70;;
24761;SDS011;12865;51.934;10.330;2023-05-07T10:26:04;15.95;;;14.35;;
24761;SDS011;12865;51.934;10.330;2023-05-07T10:28:55;16.10;;;14.25;;
24761;SDS011;12865;51.934;10.330;2023-05-07T10:34:39;15.60;;;14.02;;
24761;SDS011;12865;51.934;10.330;2023-05-07T10:37:29;15.10;;;13.60;;
24761;SDS011;12865;51.934;10.330;2023-05-07T10:40:15;15.77;;;14.10;;
24761;SDS011;12865;51.934;10.330;2023-05-07T10:43:03;14.75;;;13.25;;
24761;SDS011;12865;51.934;10.330;2023-05-07T10:46:14;14.20;;;12.88;;
24761;SDS011;12865;51.934;10.330;2023-05-07T11:01:10;13.30;;;11.93;;
24761;SDS011;12865;51.934;10.330;2023-05-07T11:04:14;13.07;;;11.77;;
24761;SDS011;12865;51.934;10.330;2023-05-07T11:09:56;11.82;;;10.63;;
24761;SDS011;12865;51.934;10.330;2023-05-07T11:12:47;12.25;;;11.05;;
24761;SDS011;12865;51.934;10.330;2023-05-07T11:15:35;12.18;;;11.02;;
24761;SDS011;12865;51.934;10.330;2023-05-07T11:18:25;11.90;;;10.77;;
24761;SDS011;12865;51.934;10.330;2023-05-07T11:21:35;11.20;;;10.07;;
24761;SDS011;12865;51.934;10.330;2023-05-07T11:24:22;13.73;;;11.73;;
24761;SDS011;12865;51.934;10.330;2023-05-07T11:27:08;11.68;;;10.52;;
24761;SDS011;12865;51.934;10.330;2023-05-07T11:29:54;11.95;;;10.77;;
24761;SDS011;12865;51.934;10.330;2023-05-07T11:32:40;12.43;;;10.65;;
24761;SDS011;12865;51.934;10.330;2023-05-07T11:35:26;11.45;;;10.25;;
24761;SDS011;12865;51.934;10.330;2023-05-07T11:38:12;11.52;;;10.43;;
24761;SDS011;12865;51.934;10.330;2023-05-07T11:40:59;11.02;;;9.98;;
24761;SDS011;12865;51.934;10.330;2023-05-07T11:43:55;10.63;;;9.63;;
24761;SDS011;12865;51.934;10.330;2023-05-07T11:46:45;10.82;;;9.65;;
24761;SDS011;12865;51.934;10.330;2023-05-07T11:49:31;10.70;;;9.75;;
24761;SDS011;12865;51.934;10.330;2023-05-07T11:52:17;10.57;;;9.48;;
24761;SDS011;12865;51.934;10.330;2023-05-07T11:55:04;10.43;;;9.52;;
24761;SDS011;12865;51.934;10.330;2023-05-07T11:57:50;10.70;;;9.63;;
24761;SDS011;12865;51.934;10.330;2023-05-07T12:00:35;10.77;;;9.77;;
24761;SDS011;12865;51.934;10.330;2023-05-07T12:03:21;10.02;;;9.15;;
24761;SDS011;12865;51.934;10.330;2023-05-07T12:06:07;10.45;;;9.32;;
24761;SDS011;12865;51.934;10.330;2023-05-07T12:08:53;10.95;;;10.00;;
24761;SDS011;12865;51.934;10.330;2023-05-07T12:11:38;10.88;;;9.98;;
24761;SDS011;12865;51.934;10.330;2023-05-07T12:14:27;11.00;;;10.00;;
24761;SDS011;12865;51.934;10.330;2023-05-07T12:17:14;11.60;;;10.50;;
24761;SDS011;12865;51.934;10.330;2023-05-07T12:20:01;11.27;;;10.07;;
24761;SDS011;12865;51.934;10.330;2023-05-07T12:22:47;10.65;;;9.55;;
24761;SDS011;12865;51.934;10.330;2023-05-07T12:25:35;10.57;;;9.57;;
24761;SDS011;12865;51.934;10.330;2023-05-07T12:28:21;11.27;;;10.15;;
24761;SDS011;12865;51.934;10.330;2023-05-07T12:31:07;10.95;;;10.00;;
24761;SDS011;12865;51.934;10.330;2023-05-07T12:33:53;10.77;;;9.75;;
24761;SDS011;12865;51.934;10.330;2023-05-07T12:36:39;12.30;;;11.23;;
24761;SDS011;12865;51.934;10.330;2023-05-07T12:39:25;11.50;;;10.25;;
24761;SDS011;12865;51.934;10.330;2023-05-07T12:42:14;13.05;;;11.75;;
24761;SDS011;12865;51.934;10.330;2023-05-07T12:45:07;12.02;;;10.93;;
24761;SDS011;12865;51.934;10.330;2023-05-07T12:47:53;11.90;;;10.88;;
24761;SDS011;12865;51.934;10.330;2023-05-07T12:50:39;11.25;;;10.18;;
24761;SDS011;12865;51.934;10.330;2023-05-07T12:53:26;10.55;;;9.65;;
24761;SDS011;12865;51.934;10.330;2023-05-07T12:56:12;10.38;;;9.48;;
24761;SDS011;12865;51.934;10.330;2023-05-07T12:59:01;10.48;;;9.63;;
24761;SDS011;12865;51.934;10.330;2023-05-07T13:01:46;11.23;;;10.32;;
24761;SDS011;12865;51.934;10.330;2023-05-07T13:04:32;10.63;;;9.70;;
24761;SDS011;12865;51.934;10.330;2023-05-07T13:07:18;11.30;;;10.30;;
24761;SDS011;12865;51.934;10.330;2023-05-07T13:10:04;11.18;;;10.00;;
24761;SDS011;12865;51.934;10.330;2023-05-07T13:12:50;11.82;;;10.82;;
24761;SDS011;12865;51.934;10.330;2023-05-07T13:15:36;12.00;;;11.02;;
24761;SDS011;12865;51.934;10.330;2023-05-07T13:18:24;10.93;;;9.93;;
24761;SDS011;12865;51.934;10.330;2023-05-07T13:21:11;12.10;;;10.80;;
24761;SDS011;12865;51.934;10.330;2023-05-07T13:23:58;10.80;;;9.80;;
24761;SDS011;12865;51.934;10.330;2023-05-07T13:26:44;11.52;;;10.63;;
24761;SDS011;12865;51.934;10.330;2023-05-07T13:29:30;11.48;;;10.48;;
24761;SDS011;12865;51.934;10.330;2023-05-07T13:32:15;12.10;;;11.10;;
24761;SDS011;12865;51.934;10.330;2023-05-07T13:35:01;12.00;;;10.93;;
24761;SDS011;12865;51.934;10.330;2023-05-07T13:37:47;11.98;;;10.98;;
24761;SDS011;12865;51.934;10.330;2023-05-07T13:40:34;11.38;;;10.48;;
24761;SDS011;12865;51.934;10.330;2023-05-07T13:43:20;11.85;;;10.80;;
24761;SDS011;12865;51.934;10.330;2023-05-07T13:46:05;11.82;;;10.82;;
24761;SDS011;12865;51.934;10.330;2023-05-07T13:48:51;12.52;;;11.38;;
24761;SDS011;12865;51.934;10.330;2023-05-07T13:51:37;12.35;;;11.35;;
24761;SDS011;12865;51.934;10.330;2023-05-07T13:54:22;13.05;;;11.75;;
24761;SDS011;12865;51.934;10.330;2023-05-07T13:57:08;12.40;;;11.30;;
24761;SDS011;12865;51.934;10.330;2023-05-07T13:59:54;13.15;;;12.05;;
24761;SDS011;12865;51.934;10.330;2023-05-07T14:02:40;12.75;;;11.52;;
24761;SDS011;12865;51.934;10.330;2023-05-07T14:05:26;14.00;;;12.70;;
24761;SDS011;12865;51.934;10.330;2023-05-07T14:08:14;13.40;;;12.20;;
24761;SDS011;12865;51.934;10.330;2023-05-07T14:11:00;15.00;;;13.60;;
24761;SDS011;12865;51.934;10.330;2023-05-07T14:13:45;13.23;;;12.02;;
24761;SDS011;12865;51.934;10.330;2023-05-07T14:16:31;13.75;;;12.55;;
24761;SDS011;12865;51.934;10.330;2023-05-07T14:19:17;14.32;;;13.02;;
24761;SDS011;12865;51.934;10.330;2023-05-07T14:22:02;19.67;;;17.77;;
24761;SDS011;12865;51.934;10.330;2023-05-07T14:24:48;15.05;;;13.38;;
24761;SDS011;12865;51.934;10.330;2023-05-07T14:27:35;13.65;;;12.35;;
24761;SDS011;12865;51.934;10.330;2023-05-07T14:30:20;15.13;;;13.57;;
24761;SDS011;12865;51.934;10.330;2023-05-07T14:33:09;14.73;;;12.32;;
24761;SDS011;12865;51.934;10.330;2023-05-07T14:35:55;13.35;;;12.15;;
24761;SDS011;12865;51.934;10.330;2023-05-07T14:38:40;14.73;;;13.32;;
24761;SDS011;12865;51.934;10.330;2023-05-07T14:41:26;14.57;;;13.18;;
24761;SDS011;12865;51.934;10.330;2023-05-07T14:44:12;14.13;;;12.90;;
24761;SDS011;12865;51.934;10.330;2023-05-07T14:46:57;15.30;;;13.90;;
24761;SDS011;12865;51.934;10.330;2023-05-07T14:49:43;13.88;;;12.48;;
24761;SDS011;12865;51.934;10.330;2023-05-07T14:52:29;14.75;;;13.45;;
24761;SDS011;12865;51.934;10.330;2023-05-07T14:55:14;14.25;;;13.05;;
24761;SDS011;12865;51.934;10.330;2023-05-07T14:58:00;14.57;;;13.18;;
24761;SDS011;12865;51.934;10.330;2023-05-07T15:00:46;13.52;;;12.35;;
24761;SDS011;12865;51.934;10.330;2023-05-07T15:03:32;14.30;;;13.10;;
24761;SDS011;12865;51.934;10.330;2023-05-07T15:06:17;15.75;;;14.30;;
24761;SDS011;12865;51.934;10.330;2023-05-07T15:09:03;15.80;;;14.32;;
24761;SDS011;12865;51.934;10.330;2023-05-07T15:11:49;16.30;;;14.90;;
24761;SDS011;12865;51.934;10.330;2023-05-07T15:14:35;15.27;;;13.88;;
24761;SDS011;12865;51.934;10.330;2023-05-07T15:19:48;15.05;;;13.50;;
24761;SDS011;12865;51.934;10.330;2023-05-07T15:22:34;15.63;;;14.18;;
24761;SDS011;12865;51.934;10.330;2023-05-07T15:25:22;15.85;;;14.43;;
24761;SDS011;12865;51.934;10.330;2023-05-07T15:28:08;15.77;;;14.40;;
24761;SDS011;12865;51.934;10.330;2023-05-07T15:30:54;15.07;;;13.63;;
24761;SDS011;12865;51.934;10.330;2023-05-07T15:33:40;15.68;;;14.10;;
24761;SDS011;12865;51.934;10.330;2023-05-07T15:36:26;14.13;;;12.93;;
24761;SDS011;12865;51.934;10.330;2023-05-07T15:39:12;15.65;;;14.25;;
24761;SDS011;12865;51.934;10.330;2023-05-07T15:41:58;14.50;;;13.27;;
24761;SDS011;12865;51.934;10.330;2023-05-07T15:44:44;15.45;;;13.98;;
24761;SDS011;12865;51.934;10.330;2023-05-07T15:47:30;15.07;;;13.73;;
24761;SDS011;12865;51.934;10.330;2023-05-07T15:50:18;13.80;;;12.52;;
24761;SDS011;12865;51.934;10.330;2023-05-07T15:53:03;14.63;;;13.25;;
24761;SDS011;12865;51.934;10.330;2023-05-07T15:55:49;13.80;;;12.50;;
24761;SDS011;12865;51.934;10.330;2023-05-07T15:58:35;13.05;;;11.95;;
24761;SDS011;12865;51.934;10.330;2023-05-07T16:01:21;12.90;;;11.80;;
24761;SDS011;12865;51.934;10.330;2023-05-07T16:04:07;12.85;;;11.75;;
24761;SDS011;12865;51.934;10.330;2023-05-07T16:06:53;11.93;;;10.93;;
24761;SDS011;12865;51.934;10.330;2023-05-07T16:09:39;12.20;;;11.07;;
24761;SDS011;12865;51.934;10.330;2023-05-07T16:12:24;12.43;;;11.38;;
24761;SDS011;12865;51.934;10.330;2023-05-07T16:15:10;12.70;;;11.60;;
24761;SDS011;12865;51.934;10.330;2023-05-07T16:17:56;12.65;;;11.38;;
24761;SDS011;12865;51.934;10.330;2023-05-07T16:20:43;12.18;;;11.07;;